createdAt,value
2019-03-01T00:02:57.696Z,93.30
2019-03-01T00:08:14.812Z,93.50
2019-03-01T00:13:31.855Z,93.50
2019-03-01T00:18:49.374Z,93.50
2019-03-01T00:24:06.360Z,93.60
2019-03-01T00:29:23.728Z,93.70
2019-03-01T00:34:41.495Z,93.70
2019-03-01T00:39:59.199Z,93.70
2019-03-01T00:45:16.365Z,93.70
2019-03-01T00:50:33.229Z,93.60
2019-03-01T00:55:49.978Z,93.70
2019-03-01T01:01:07.595Z,93.90
2019-03-01T01:06:25.347Z,94.00
2019-03-01T01:11:42.338Z,93.90
2019-03-01T01:16:59.944Z,93.80
2019-03-01T01:22:17.163Z,93.90
2019-03-01T01:27:34.279Z,93.90
2019-03-01T01:38:36.449Z,93.90
2019-03-01T01:43:53.274Z,93.80
2019-03-01T01:49:11.007Z,93.80
2019-03-01T01:54:28.374Z,93.70
2019-03-01T02:05:00.000Z,93.50
2019-03-01T02:10:17.358Z,93.80
2019-03-01T02:15:34.501Z,93.80
2019-03-01T02:20:51.737Z,94.20
2019-03-01T02:26:09.253Z,93.80
2019-03-01T02:31:26.401Z,93.80
2019-03-01T02:36:43.361Z,93.80
2019-03-01T02:42:00.257Z,93.80
2019-03-01T02:47:17.442Z,93.80
2019-03-01T02:52:35.021Z,93.80
2019-03-01T02:57:52.406Z,93.80
2019-03-01T03:03:09.309Z,93.80
2019-03-01T03:08:26.275Z,93.90
2019-03-01T03:13:43.036Z,94.00
2019-03-01T03:19:00.578Z,93.90
2019-03-01T03:24:17.587Z,93.70
2019-03-01T03:29:35.340Z,94.10
2019-03-01T03:34:52.294Z,93.70
2019-03-01T03:40:09.969Z,93.60
2019-03-01T03:45:26.930Z,93.60
2019-03-01T03:50:44.071Z,94.00
2019-03-01T03:56:01.260Z,94.30
2019-03-01T04:01:18.699Z,94.10
2019-03-01T04:06:35.531Z,94.00
2019-03-01T05:21:14.518Z,93.50
2019-03-01T05:26:50.883Z,93.50
2019-03-01T05:32:08.061Z,93.40
2019-03-01T05:55:58.056Z,93.20
2019-03-01T06:07:17.689Z,93.10
2019-03-01T06:12:53.846Z,93.40
2019-03-01T07:18:20.406Z,93.20
2019-03-01T08:28:07.779Z,92.40
2019-03-01T08:33:51.071Z,92.40
2019-03-01T09:15:39.169Z,92.40
2019-03-01T09:38:52.162Z,91.80
2019-03-01T09:43:59.612Z,91.70
2019-03-01T09:49:05.938Z,91.50
2019-03-01T09:54:12.024Z,91.60
2019-03-01T09:59:17.897Z,91.50
2019-03-01T10:04:23.962Z,91.60
2019-03-01T10:09:30.034Z,91.70
2019-03-01T10:14:36.083Z,91.50
2019-03-01T10:19:42.081Z,91.70
2019-03-01T10:24:48.151Z,91.20
2019-03-01T10:29:54.043Z,91.10
2019-03-01T10:35:00.136Z,90.80
2019-03-01T10:40:06.678Z,90.60
2019-03-01T10:45:15.572Z,90.20
2019-03-01T10:50:21.599Z,89.80
2019-03-01T10:55:27.687Z,89.30
2019-03-01T11:00:33.757Z,88.90
2019-03-01T11:05:39.759Z,88.50
2019-03-01T11:10:45.604Z,87.90
2019-03-01T11:15:51.682Z,87.60
2019-03-01T11:20:57.923Z,87.40
2019-03-01T11:26:03.945Z,87.20
2019-03-01T11:31:10.153Z,86.60
2019-03-01T11:36:16.184Z,87.10
2019-03-01T11:41:22.330Z,87.40
2019-03-01T11:46:28.351Z,87.60
2019-03-01T11:51:34.131Z,87.10
2019-03-01T11:56:40.322Z,87.40
2019-03-01T12:01:46.413Z,88.10
2019-03-01T12:06:53.805Z,88.10
2019-03-01T12:11:59.757Z,88.30
2019-03-01T12:17:05.941Z,88.50
2019-03-01T12:22:17.045Z,88.90
2019-03-01T12:27:19.725Z,89.10
2019-03-01T12:32:25.712Z,89.00
2019-03-01T12:37:32.006Z,88.80
2019-03-01T12:42:37.989Z,88.80
2019-03-01T12:47:44.113Z,88.50
2019-03-01T12:52:50.321Z,88.60
2019-03-01T12:57:56.376Z,88.10
2019-03-01T13:03:05.170Z,87.80
2019-03-01T13:08:12.600Z,87.40
2019-03-01T13:13:17.489Z,86.90
2019-03-01T13:18:23.556Z,87.10
2019-03-01T13:23:29.333Z,86.60
2019-03-01T13:28:35.512Z,86.40
2019-03-01T13:33:41.619Z,86.50
2019-03-01T13:38:47.666Z,86.10
2019-03-01T13:43:53.721Z,85.60
2019-03-01T13:48:59.617Z,85.90
2019-03-01T13:54:05.733Z,85.60
2019-03-01T13:59:13.424Z,85.00
2019-03-01T14:04:19.536Z,85.40
2019-03-01T14:09:27.093Z,85.50
2019-03-01T14:14:33.303Z,85.30
2019-03-01T14:19:42.297Z,84.90
2019-03-01T14:24:46.973Z,85.40
2019-03-01T14:29:53.798Z,85.20
2019-03-01T14:34:59.732Z,85.20
2019-03-01T14:40:06.681Z,85.30
2019-03-01T14:45:15.267Z,85.70
2019-03-01T14:50:22.556Z,84.80
2019-03-01T14:55:37.664Z,85.10
2019-03-01T15:01:23.283Z,84.50
2019-03-01T15:06:29.749Z,84.80
2019-03-01T15:11:35.860Z,84.50
2019-03-01T15:16:43.314Z,84.90
2019-03-01T15:21:49.937Z,84.60
2019-03-01T15:26:56.017Z,84.50
2019-03-01T15:32:01.987Z,84.60
2019-03-01T15:37:09.367Z,84.30
2019-03-01T15:42:17.636Z,83.90
2019-03-01T15:47:23.839Z,84.00
2019-03-01T15:52:30.615Z,84.00
2019-03-01T15:57:36.540Z,84.20
2019-03-01T16:02:42.466Z,84.10
2019-03-01T16:07:48.544Z,84.20
2019-03-01T16:12:54.474Z,83.90
2019-03-01T16:18:00.971Z,84.10
2019-03-01T16:23:07.701Z,84.10
2019-03-01T16:28:14.685Z,84.10
2019-03-01T16:33:22.456Z,83.90
2019-03-01T16:38:28.587Z,84.10
2019-03-01T16:43:34.552Z,83.90
2019-03-01T16:48:40.489Z,83.90
2019-03-01T16:53:46.616Z,83.30
2019-03-01T16:58:52.583Z,83.70
2019-03-01T17:03:58.633Z,83.90
2019-03-01T17:09:05.883Z,83.90
2019-03-01T17:14:11.847Z,83.30
2019-03-01T17:19:20.511Z,83.60
2019-03-01T17:24:25.523Z,83.70
2019-03-01T17:29:31.640Z,83.80
2019-03-01T17:34:37.794Z,84.00
2019-03-01T17:39:44.090Z,84.30
2019-03-01T17:44:50.282Z,84.50
2019-03-01T17:49:56.203Z,85.10
2019-03-01T17:55:02.764Z,85.60
2019-03-01T18:00:12.446Z,85.60
2019-03-01T18:05:18.497Z,85.80
2019-03-01T18:10:25.161Z,86.10
2019-03-01T18:15:31.081Z,87.10
2019-03-01T18:20:37.680Z,87.30
2019-03-01T18:25:44.934Z,87.50
2019-03-01T18:30:51.994Z,87.40
2019-03-01T18:35:58.796Z,87.70
2019-03-01T18:41:05.234Z,87.80
2019-03-01T18:46:11.219Z,87.90
2019-03-01T18:51:17.314Z,88.60
2019-03-01T18:56:25.013Z,88.40
2019-03-01T19:01:30.869Z,88.20
2019-03-01T19:06:37.043Z,88.10
2019-03-01T19:11:43.054Z,87.40
2019-03-01T19:16:49.559Z,88.30
2019-03-01T19:21:56.049Z,88.20
2019-03-01T19:27:01.795Z,88.20
2019-03-01T19:32:08.158Z,88.30
2019-03-01T19:37:14.550Z,88.30
2019-03-01T19:42:20.703Z,88.40
2019-03-01T19:47:27.268Z,88.50
2019-03-01T19:52:33.315Z,88.60
2019-03-01T19:57:39.492Z,88.60
2019-03-01T20:02:45.550Z,88.80
2019-03-01T20:07:54.410Z,89.30
2019-03-01T20:12:59.587Z,90.10
2019-03-01T20:18:06.787Z,89.40
2019-03-01T20:23:13.324Z,89.70
2019-03-01T20:28:19.203Z,90.20
2019-03-01T20:33:27.195Z,90.20
2019-03-01T20:38:32.844Z,90.40
2019-03-01T20:43:41.766Z,90.40
2019-03-01T20:48:46.672Z,90.50
2019-03-01T20:53:52.590Z,90.60
2019-03-01T20:58:58.456Z,90.70
2019-03-01T21:04:04.852Z,90.90
2019-03-01T21:09:11.683Z,91.10
2019-03-01T21:14:17.473Z,91.10
2019-03-01T21:19:23.565Z,91.20
2019-03-01T21:24:29.741Z,91.20
2019-03-01T21:29:35.838Z,91.30
2019-03-01T21:34:43.700Z,91.40
2019-03-01T21:39:49.764Z,91.50
2019-03-01T21:44:55.806Z,91.60
2019-03-01T21:50:04.275Z,91.70
2019-03-01T21:55:11.186Z,91.60
2019-03-01T22:00:19.062Z,91.70
2019-03-01T22:05:25.082Z,91.80
2019-03-01T22:10:31.558Z,91.70
2019-03-01T22:15:39.010Z,91.50
2019-03-01T22:20:45.752Z,92.00
2019-03-01T22:25:51.864Z,92.10
2019-03-01T22:31:00.279Z,91.80
2019-03-01T22:36:05.878Z,91.70
2019-03-01T22:41:11.940Z,91.50
2019-03-01T22:46:21.119Z,91.50
2019-03-01T22:51:25.636Z,91.60
2019-03-01T22:56:31.523Z,91.50
2019-03-01T23:01:42.383Z,91.50
2019-03-01T23:06:51.506Z,91.50
2019-03-01T23:11:56.205Z,91.40
2019-03-01T23:17:02.128Z,91.40
2019-03-01T23:22:10.953Z,91.40
2019-03-01T23:27:16.358Z,91.40
2019-03-01T23:32:22.337Z,91.30
2019-03-01T23:37:28.398Z,91.70
2019-03-01T23:42:34.158Z,91.50
2019-03-01T23:47:40.229Z,91.40
2019-03-01T23:52:46.171Z,91.30
2019-03-01T23:57:51.985Z,91.20
